Peachtree City, Georgia
Current Conditions -  °F | °C
As of 10:11 AM on Monday 24 Nov 2014 (Local Time) from KFFC Reporting Station
Scattered Clouds Scattered Clouds  
Wind Chill: 68°   Ceiling: Unl
Heat Index: 68°   Visibility: 10mi
Dew Point: 59°   Wind: 10mph
Humidity: 73%   Direction: 250°WSW
Pressure: 29.83"   Gusts: 22mph
Location:  33.4°N, 84.59°W
Report Text: KFFC 241511Z AUTO 25009G19KT 10SM SCT020 20/15 A2983 RMK AO2 T02000150
Loading
Personal Weather Stations






























Interactive Weather Map New forecast layout! Learn more

10-Day Weather Forecast

Advertisements
Track Severe Weather on mobile